Balmaceda, Balmaceda Airport (SCBA)

NameBalmaceda Airport
CityBalmaceda
CountryChile
ICAOSCBA
IATABBA
Altitude525 m
CoordinatesGoogle Map
Live Air TrafficLiveATC.net
METARSCBA 192300Z 29023KT 9999 FEW040 08/02 Q1001
2019-11-19 23:00:00 Wind: West (290°) 11.83 m/s - Visibility: > 10000 m - Temperature: 8 °C - Dew point: 2 °C - Humidity: 66.2% - Pressure: 1001 hPa
Statistics

The table below shows the detailed information of all flights to/from Balmaceda, Balmaceda Airport (SCBA).